Terminal Aerodrome Forecast
Issued by NWS

Home | Current Version | Previous Version | Text Only | Print | Product List | Glossary On
Versions: 1 2 3 4 5 6 7 8 9 10 11 12 13
473
FTUS46 KLOX 241139
TAFPRB
TAF
KPRB 241139Z 2412/2512 VRB03KT P6SM SKC
     FM241700 21007KT P6SM SKC
     FM242100 22015G25KT P6SM SKC
     FM250300 20011KT P6SM SKC
     FM250800 VRB05KT P6SM SKC=

USA.gov is the U.S. government's official web portal to all federal, state and local government web resources and services.